KMAI

Marianna Municipal Airport

Marianna, Florida, USA
METAR KMAI 242356Z AUTO 33016G23KT 10SM SCT027 BKN039 OVC070 25/20 A3002 RMK AO2 WSHFT 2340 LTG DSNT ALQDS T02500200
Observed Flight Rules
May-24 @ 23:56 UTC (an hour ago) Visual Flight Rules
Wind Visibility Clouds
330° at 16 knots
 Gusting to 23 knots
10 miles
  • Scattered at 2,700' AGL
  • Broken at 3,900' AGL
  • Overcast at 7,000' AGL
Temperatures Readings
Current 25°C / 77°F
Dewpoint 20°C / 68°F
Humidity 74%
Altimeter 30.02" Hg
Pressure 1017 hPa
Elevation 32
METAR KMAI 242356Z AUTO 33016G23KT 10SM SCT027 BKN039 OVC070 25/20 A3002 RMK AO2 WSHFT 2340 LTG DSNT ALQDS T02500200
Observed Flight Rules
May-24 @ 23:56 UTC
(an hour ago)
VFR
Wind Visibility
330° at 16 knots
 Gusting to 23 knots
10 miles
Clouds
  • Scattered at 2,700' AGL
  • Broken at 3,900' AGL
  • Overcast at 7,000' AGL
Temperature Dewpoint
25°C / 77°F 20°C / 68°F
Humidity Altimeter Pressure
74% 30.02" Hg 1017 hPa